createdAt,value
2023-05-06T00:01:53.727Z,6.78
2023-05-06T00:04:20.499Z,6.75
2023-05-06T00:06:47.279Z,6.73
2023-05-06T00:09:14.001Z,6.71
2023-05-06T00:11:40.683Z,6.69
2023-05-06T00:14:07.381Z,6.67
2023-05-06T00:16:34.111Z,6.68
2023-05-06T00:19:00.884Z,6.68
2023-05-06T00:21:27.664Z,6.68
2023-05-06T00:23:54.386Z,6.68
2023-05-06T00:26:21.258Z,6.70
2023-05-06T00:28:47.982Z,6.71
2023-05-06T00:31:14.676Z,6.72
2023-05-06T00:33:41.500Z,6.71
2023-05-06T00:36:08.606Z,6.68
2023-05-06T00:38:35.713Z,6.67
2023-05-06T00:41:04.181Z,6.63
2023-05-06T00:43:30.950Z,6.58
2023-05-06T00:45:57.810Z,6.57
2023-05-06T00:48:24.724Z,6.54
2023-05-06T00:50:51.698Z,6.52
2023-05-06T00:53:19.615Z,6.51
2023-05-06T00:55:46.339Z,6.50
2023-05-06T00:58:13.093Z,6.46
2023-05-06T01:00:40.239Z,6.40
2023-05-06T01:03:07.006Z,6.34
2023-05-06T01:05:39.718Z,6.32
2023-05-06T01:08:12.859Z,6.32
2023-05-06T01:10:46.769Z,6.30
2023-05-06T01:13:32.972Z,6.27
2023-05-06T01:15:59.909Z,6.22
2023-05-06T01:18:27.145Z,6.17
2023-05-06T01:20:54.637Z,6.13
2023-05-06T01:23:21.589Z,6.10
2023-05-06T01:25:48.301Z,6.08
2023-05-06T01:28:16.669Z,6.04
2023-05-06T01:30:49.576Z,6.00
2023-05-06T01:33:22.658Z,5.94
2023-05-06T01:36:04.607Z,5.88
2023-05-06T01:38:36.704Z,5.83
2023-05-06T01:41:03.568Z,5.79
2023-05-06T01:43:35.100Z,5.74
2023-05-06T01:46:02.528Z,5.71
2023-05-06T01:48:31.439Z,5.67
2023-05-06T01:50:58.225Z,5.64
2023-05-06T01:53:26.129Z,5.61
2023-05-06T01:55:52.897Z,5.57
2023-05-06T01:58:19.603Z,5.54
2023-05-06T02:00:46.308Z,5.51
2023-05-06T02:03:13.643Z,5.50
2023-05-06T02:05:40.775Z,5.49
2023-05-06T02:08:07.630Z,5.50
2023-05-06T02:10:34.470Z,5.51
2023-05-06T02:13:04.594Z,5.50
2023-05-06T02:15:31.384Z,5.50
2023-05-06T02:17:59.983Z,5.50
2023-05-06T02:20:26.873Z,5.49
2023-05-06T02:22:53.678Z,5.49
2023-05-06T02:25:20.853Z,5.49
2023-05-06T02:27:47.626Z,5.49
2023-05-06T02:30:14.868Z,5.50
2023-05-06T02:32:41.695Z,5.51
2023-05-06T02:35:09.147Z,5.51
2023-05-06T02:37:36.122Z,5.51
2023-05-06T02:40:02.843Z,5.51
2023-05-06T02:42:30.975Z,5.50
2023-05-06T02:44:57.706Z,5.48
2023-05-06T02:47:24.548Z,5.44
2023-05-06T02:49:51.312Z,5.42
2023-05-06T02:52:18.750Z,5.41
2023-05-06T02:54:45.487Z,5.42
2023-05-06T02:57:12.215Z,5.42
2023-05-06T02:59:38.913Z,5.41
2023-05-06T03:02:05.887Z,5.41
2023-05-06T03:04:32.814Z,5.42
2023-05-06T03:06:59.612Z,5.42
2023-05-06T03:09:26.377Z,5.45
2023-05-06T03:11:54.007Z,5.47
2023-05-06T03:14:21.358Z,5.50
2023-05-06T03:16:49.136Z,5.54
2023-05-06T03:19:16.186Z,5.59
2023-05-06T03:21:43.982Z,5.68
2023-05-06T03:24:11.518Z,5.77
2023-05-06T03:26:38.581Z,5.79
2023-05-06T03:29:05.821Z,5.78
2023-05-06T03:31:32.681Z,5.77
2023-05-06T03:33:59.718Z,5.75
2023-05-06T03:36:28.042Z,5.74
2023-05-06T03:38:55.189Z,5.76
2023-05-06T03:41:22.395Z,5.76
2023-05-06T03:43:49.321Z,5.76
2023-05-06T03:46:17.278Z,5.76
2023-05-06T03:48:44.414Z,5.77
2023-05-06T03:51:13.186Z,5.79
2023-05-06T03:53:40.300Z,5.81
2023-05-06T03:56:07.446Z,5.83
2023-05-06T03:58:35.515Z,5.86
2023-05-06T04:01:02.642Z,5.91
2023-05-06T04:03:29.455Z,6.09
2023-05-06T04:05:56.254Z,6.42
2023-05-06T04:08:25.574Z,6.86
2023-05-06T04:10:52.988Z,7.38
2023-05-06T04:13:26.468Z,7.92
2023-05-06T04:15:53.492Z,8.41
2023-05-06T04:18:23.050Z,8.86
2023-05-06T04:20:56.563Z,9.19
2023-05-06T04:23:24.113Z,9.37
2023-05-06T04:25:51.014Z,9.47
2023-05-06T04:28:18.958Z,9.55
2023-05-06T04:30:48.803Z,9.67
2023-05-06T04:33:15.826Z,9.84
2023-05-06T04:35:53.839Z,9.95
2023-05-06T04:38:21.810Z,9.96
2023-05-06T04:40:50.109Z,9.91
2023-05-06T04:43:17.207Z,9.77
2023-05-06T04:45:49.829Z,9.67
2023-05-06T04:48:19.887Z,9.52
2023-05-06T04:50:46.969Z,9.33
2023-05-06T04:53:14.070Z,9.10
2023-05-06T04:55:41.550Z,8.95
2023-05-06T04:58:08.986Z,8.91
2023-05-06T05:00:36.056Z,8.91
2023-05-06T05:03:03.839Z,8.87
2023-05-06T05:05:33.242Z,8.79
2023-05-06T05:08:02.778Z,8.71
2023-05-06T05:10:29.796Z,8.53
2023-05-06T05:12:56.573Z,8.39
2023-05-06T05:15:23.994Z,8.27
2023-05-06T05:17:51.348Z,8.15
2023-05-06T05:20:18.949Z,8.04
2023-05-06T05:22:45.674Z,8.00
2023-05-06T05:25:13.082Z,7.98
2023-05-06T05:27:42.239Z,8.00
2023-05-06T05:30:09.569Z,8.04
2023-05-06T05:32:38.734Z,8.09
2023-05-06T05:35:06.093Z,8.15
2023-05-06T05:37:33.546Z,8.19
2023-05-06T05:40:00.867Z,8.28
2023-05-06T05:42:28.126Z,8.46
2023-05-06T05:44:56.132Z,8.64
2023-05-06T05:47:23.845Z,8.86
2023-05-06T05:49:50.827Z,9.36
2023-05-06T05:52:18.367Z,9.86
2023-05-06T05:54:45.154Z,10.27
2023-05-06T05:57:11.959Z,10.74
2023-05-06T05:59:39.229Z,11.31
2023-05-06T06:02:06.526Z,11.67
2023-05-06T06:04:33.397Z,11.98
2023-05-06T06:07:01.959Z,12.03
2023-05-06T06:09:29.077Z,11.89
2023-05-06T06:11:56.060Z,11.66
2023-05-06T06:14:24.296Z,11.42
2023-05-06T06:16:51.094Z,11.23
2023-05-06T06:19:18.181Z,11.05
2023-05-06T06:21:45.376Z,10.88
2023-05-06T06:24:12.901Z,10.70
2023-05-06T06:26:39.689Z,10.45
2023-05-06T06:29:06.534Z,10.23
2023-05-06T06:31:34.961Z,10.06
2023-05-06T06:34:05.306Z,10.01
2023-05-06T06:36:32.784Z,10.11
2023-05-06T06:38:59.566Z,10.22
2023-05-06T06:41:27.351Z,10.21
2023-05-06T06:43:54.147Z,10.30
2023-05-06T06:46:25.355Z,11.04
2023-05-06T06:48:52.126Z,11.68
2023-05-06T06:51:18.848Z,12.73
2023-05-06T06:53:48.322Z,13.65
2023-05-06T06:56:16.017Z,14.28
2023-05-06T06:58:42.754Z,15.08
2023-05-06T07:01:10.125Z,15.93
2023-05-06T07:03:37.045Z,16.46
2023-05-06T07:06:04.040Z,17.08
2023-05-06T07:08:30.777Z,17.99
2023-05-06T07:10:57.568Z,19.10
2023-05-06T07:13:24.441Z,19.89
2023-05-06T07:15:51.247Z,19.85
2023-05-06T07:18:18.057Z,20.08
2023-05-06T07:20:44.931Z,20.46
2023-05-06T07:23:11.693Z,20.26
2023-05-06T07:25:38.421Z,20.05
2023-05-06T07:28:05.788Z,20.21
2023-05-06T07:30:32.666Z,19.46
2023-05-06T07:32:59.578Z,18.78
2023-05-06T07:35:26.383Z,19.01
2023-05-06T07:37:53.424Z,20.12
2023-05-06T07:40:20.101Z,21.26
2023-05-06T07:42:46.860Z,22.03
2023-05-06T07:45:15.619Z,22.59
2023-05-06T07:47:42.531Z,23.29
2023-05-06T07:50:10.558Z,23.70
2023-05-06T07:52:37.501Z,24.02
2023-05-06T07:55:05.116Z,24.15
2023-05-06T07:57:31.962Z,24.44
2023-05-06T07:59:58.766Z,24.67
2023-05-06T08:02:25.851Z,25.00
2023-05-06T08:04:53.204Z,25.19
2023-05-06T08:07:20.045Z,25.32
2023-05-06T08:09:46.778Z,25.48
2023-05-06T08:12:13.572Z,25.41
2023-05-06T08:14:40.866Z,25.38
2023-05-06T08:17:07.800Z,25.52
2023-05-06T08:19:34.621Z,25.46
2023-05-06T08:22:01.342Z,25.55
2023-05-06T08:24:28.381Z,25.43
2023-05-06T08:26:55.196Z,25.39
2023-05-06T08:29:21.967Z,25.83
2023-05-06T08:31:48.779Z,25.90
2023-05-06T08:34:18.516Z,25.52
2023-05-06T08:36:45.901Z,24.85
2023-05-06T08:39:14.520Z,24.44
2023-05-06T08:41:41.455Z,24.50
2023-05-06T08:44:08.349Z,24.53
2023-05-06T08:46:35.195Z,24.72
2023-05-06T08:49:02.513Z,25.18
2023-05-06T08:51:30.262Z,25.50
2023-05-06T08:53:57.023Z,25.65
2023-05-06T08:56:24.514Z,25.67
2023-05-06T08:58:51.614Z,26.09
2023-05-06T09:01:18.776Z,26.69
2023-05-06T09:03:46.153Z,27.07
2023-05-06T09:06:13.520Z,27.08
2023-05-06T09:08:41.039Z,27.05
2023-05-06T09:11:24.511Z,27.00
2023-05-06T09:13:51.470Z,26.65
2023-05-06T09:16:29.294Z,27.14
2023-05-06T09:18:56.666Z,27.88
2023-05-06T09:21:29.791Z,28.40
2023-05-06T09:23:56.475Z,28.79
2023-05-06T09:26:23.418Z,28.95
2023-05-06T09:28:51.127Z,28.66
2023-05-06T09:31:17.960Z,28.48
2023-05-06T09:33:44.690Z,28.33
2023-05-06T09:36:13.464Z,28.41
2023-05-06T09:38:43.226Z,28.62
2023-05-06T09:41:11.195Z,28.99
2023-05-06T09:43:42.059Z,29.24
2023-05-06T09:46:09.079Z,29.52
2023-05-06T09:48:36.005Z,29.90
2023-05-06T09:51:03.426Z,30.30
2023-05-06T09:53:30.503Z,30.51
2023-05-06T09:55:58.478Z,30.63
2023-05-06T09:58:25.304Z,31.08
2023-05-06T10:00:52.158Z,31.36
2023-05-06T10:03:19.047Z,31.35
2023-05-06T10:05:46.171Z,31.57
2023-05-06T10:08:15.177Z,31.74
2023-05-06T10:10:42.118Z,31.70
2023-05-06T10:13:08.925Z,31.14
2023-05-06T10:15:35.718Z,30.41
2023-05-06T10:18:02.531Z,29.70
2023-05-06T10:20:29.309Z,28.41
2023-05-06T10:23:45.010Z,26.95
2023-05-06T10:26:12.086Z,25.55
2023-05-06T10:28:42.623Z,24.54
2023-05-06T10:31:12.992Z,23.46
2023-05-06T10:33:45.714Z,22.49
2023-05-06T10:36:20.575Z,21.64
2023-05-06T10:38:54.934Z,21.01
2023-05-06T10:41:22.396Z,20.65
2023-05-06T10:43:56.883Z,20.29
2023-05-06T10:46:24.878Z,19.98
2023-05-06T10:49:04.433Z,19.75
2023-05-06T10:51:40.605Z,19.53
2023-05-06T10:54:19.607Z,19.35
2023-05-06T10:56:49.698Z,19.18
2023-05-06T10:59:21.343Z,19.01
2023-05-06T11:01:55.273Z,18.76
2023-05-06T11:04:22.013Z,18.51
2023-05-06T11:06:49.688Z,18.32
2023-05-06T11:09:23.544Z,18.15
2023-05-06T11:12:03.933Z,18.04
2023-05-06T11:14:37.687Z,17.97
2023-05-06T11:17:06.203Z,17.92
2023-05-06T11:19:34.061Z,17.86
2023-05-06T11:22:01.972Z,17.79
2023-05-06T11:24:29.856Z,17.58
2023-05-06T11:26:58.284Z,17.26
2023-05-06T11:29:25.168Z,17.05
2023-05-06T11:31:54.047Z,16.84
2023-05-06T11:34:31.428Z,16.68
2023-05-06T11:37:09.657Z,16.62
2023-05-06T11:39:40.921Z,16.66
2023-05-06T11:42:09.108Z,16.72
2023-05-06T11:44:37.263Z,16.76
2023-05-06T11:47:05.964Z,16.78
2023-05-06T11:49:43.145Z,16.77
2023-05-06T11:52:10.774Z,16.78
2023-05-06T11:54:41.888Z,16.88
2023-05-06T11:57:09.055Z,17.07
2023-05-06T11:59:40.134Z,17.34
2023-05-06T12:02:07.570Z,17.53
2023-05-06T12:04:38.217Z,17.66
2023-05-06T12:07:05.793Z,17.72
2023-05-06T12:09:32.601Z,17.77
2023-05-06T12:11:59.317Z,17.90
2023-05-06T12:14:26.353Z,17.99
2023-05-06T12:16:55.982Z,17.95
2023-05-06T12:19:24.212Z,17.85
2023-05-06T12:21:54.182Z,17.77
2023-05-06T12:24:28.991Z,17.62
2023-05-06T12:26:56.194Z,17.46
2023-05-06T12:29:22.947Z,17.31
2023-05-06T12:31:49.874Z,17.19
2023-05-06T12:34:18.208Z,17.09
2023-05-06T12:36:46.111Z,16.91
2023-05-06T12:39:14.136Z,16.72
2023-05-06T12:41:53.877Z,16.58
2023-05-06T12:44:33.702Z,16.51
2023-05-06T12:47:01.687Z,16.45
2023-05-06T12:49:34.709Z,16.40
2023-05-06T12:52:09.183Z,16.36
2023-05-06T12:54:36.730Z,16.35
2023-05-06T12:57:04.422Z,16.34
2023-05-06T12:59:31.669Z,16.33
2023-05-06T13:01:59.153Z,16.31
2023-05-06T13:04:26.075Z,16.26
2023-05-06T13:06:52.855Z,16.24
2023-05-06T13:09:19.620Z,16.23
2023-05-06T13:11:46.418Z,16.23
2023-05-06T13:14:13.689Z,16.25
2023-05-06T13:16:40.595Z,16.29
2023-05-06T13:19:12.787Z,16.30
2023-05-06T13:21:45.925Z,16.30
2023-05-06T13:24:12.692Z,16.24
2023-05-06T13:26:39.504Z,16.17
2023-05-06T13:29:06.402Z,16.11
2023-05-06T13:31:34.914Z,16.03
2023-05-06T13:34:01.791Z,15.97
2023-05-06T13:36:28.621Z,15.89
2023-05-06T13:38:55.903Z,15.81
2023-05-06T13:41:22.741Z,15.74
2023-05-06T13:43:49.526Z,15.68
2023-05-06T13:46:16.478Z,15.63
2023-05-06T13:48:44.223Z,15.61
2023-05-06T13:51:11.018Z,15.63
2023-05-06T13:53:39.421Z,15.69
2023-05-06T13:56:06.454Z,15.77
2023-05-06T13:58:33.619Z,15.81
2023-05-06T14:01:00.738Z,15.84
2023-05-06T14:03:27.514Z,15.88
2023-05-06T14:05:54.230Z,15.92
2023-05-06T14:08:20.912Z,15.90
2023-05-06T14:10:47.583Z,15.91
2023-05-06T14:13:14.522Z,15.92
2023-05-06T14:15:41.249Z,15.85
2023-05-06T14:18:08.023Z,15.81
2023-05-06T14:20:34.862Z,15.75
2023-05-06T14:23:04.277Z,15.68
2023-05-06T14:25:31.053Z,15.60
2023-05-06T14:27:57.958Z,15.53
2023-05-06T14:30:24.757Z,15.47
2023-05-06T14:32:51.593Z,15.45
2023-05-06T14:35:18.430Z,15.41
2023-05-06T14:37:45.287Z,15.37
2023-05-06T14:40:12.266Z,15.34
2023-05-06T14:42:39.031Z,15.30
2023-05-06T14:45:06.876Z,15.25
2023-05-06T14:47:33.666Z,15.19
2023-05-06T14:50:00.894Z,15.13
2023-05-06T14:52:30.456Z,15.07
2023-05-06T14:54:57.355Z,15.02
2023-05-06T14:57:24.286Z,15.01
2023-05-06T14:59:51.853Z,15.02
2023-05-06T15:02:18.726Z,15.02
2023-05-06T15:04:46.341Z,14.99
2023-05-06T15:07:13.110Z,14.95
2023-05-06T15:09:40.343Z,14.88
2023-05-06T15:12:07.342Z,14.81
2023-05-06T15:14:34.130Z,14.76
2023-05-06T15:17:01.152Z,14.72
2023-05-06T15:19:28.123Z,14.68
2023-05-06T15:21:54.850Z,14.65
2023-05-06T15:24:21.632Z,14.61
2023-05-06T15:26:48.561Z,14.55
2023-05-06T15:29:17.654Z,14.48
2023-05-06T15:31:44.588Z,14.44
2023-05-06T15:34:11.741Z,14.40
2023-05-06T15:36:41.710Z,14.33
2023-05-06T15:39:08.538Z,14.23
2023-05-06T15:41:35.995Z,14.16
2023-05-06T15:44:03.572Z,14.10
2023-05-06T15:46:31.014Z,14.07
2023-05-06T15:49:12.773Z,14.05
2023-05-06T15:51:44.446Z,14.03
2023-05-06T15:54:11.180Z,14.01
2023-05-06T15:56:41.040Z,13.97
2023-05-06T15:59:09.088Z,13.93
2023-05-06T16:02:16.545Z,13.91
2023-05-06T16:04:23.693Z,13.88
2023-05-06T16:06:50.988Z,13.87
2023-05-06T16:09:17.960Z,13.86
2023-05-06T16:11:44.695Z,13.84
2023-05-06T16:14:11.382Z,13.80
2023-05-06T16:16:38.733Z,13.77
2023-05-06T16:19:05.534Z,13.74
2023-05-06T16:21:32.328Z,13.72
2023-05-06T16:23:59.104Z,13.69
2023-05-06T16:26:25.929Z,13.65
2023-05-06T16:28:53.788Z,13.62
2023-05-06T16:31:20.824Z,13.59
2023-05-06T16:33:47.620Z,13.58
2023-05-06T16:36:14.468Z,13.56
2023-05-06T16:38:41.252Z,13.54
2023-05-06T16:41:08.169Z,13.52
2023-05-06T16:43:34.931Z,13.49
2023-05-06T16:46:01.709Z,13.44
2023-05-06T16:48:28.845Z,13.39
2023-05-06T16:50:55.691Z,13.36
2023-05-06T16:53:22.511Z,13.33
2023-05-06T16:55:49.475Z,13.29
2023-05-06T16:58:16.223Z,13.24
2023-05-06T17:00:43.082Z,13.20
2023-05-06T17:03:10.420Z,13.16
2023-05-06T17:05:37.247Z,13.12
2023-05-06T17:08:04.117Z,13.09
2023-05-06T17:10:30.960Z,13.08
2023-05-06T17:12:58.133Z,13.05
2023-05-06T17:15:25.157Z,13.02
2023-05-06T17:17:52.059Z,13.01
2023-05-06T17:20:22.760Z,12.98
2023-05-06T17:22:49.691Z,12.96
2023-05-06T17:25:16.703Z,12.94
2023-05-06T17:27:44.208Z,12.91
2023-05-06T17:30:11.991Z,12.88
2023-05-06T17:32:39.528Z,12.84
2023-05-06T17:35:06.694Z,12.81
2023-05-06T17:37:34.211Z,12.79
2023-05-06T17:40:02.921Z,12.77
2023-05-06T17:42:30.758Z,12.74
2023-05-06T17:44:57.664Z,12.72
2023-05-06T17:47:24.686Z,12.70
2023-05-06T17:49:54.587Z,12.68
2023-05-06T17:52:21.354Z,12.66
2023-05-06T17:54:56.928Z,12.63
2023-05-06T17:57:34.036Z,12.60
2023-05-06T18:00:00.745Z,12.58
2023-05-06T18:02:28.736Z,12.55
2023-05-06T18:04:55.914Z,12.54
2023-05-06T18:07:22.695Z,12.52
2023-05-06T18:09:52.099Z,12.51
2023-05-06T18:12:19.447Z,12.48
2023-05-06T18:14:46.516Z,12.46
2023-05-06T18:17:13.263Z,12.43
2023-05-06T18:19:40.093Z,12.40
2023-05-06T18:22:06.882Z,12.38
2023-05-06T18:24:34.850Z,12.36
2023-05-06T18:27:02.393Z,12.33
2023-05-06T18:29:30.346Z,12.31
2023-05-06T18:31:57.430Z,12.30
2023-05-06T18:34:24.278Z,12.27
2023-05-06T18:36:51.179Z,12.24
2023-05-06T18:39:17.984Z,12.20
2023-05-06T18:41:45.061Z,12.18
2023-05-06T18:44:11.952Z,12.16
2023-05-06T18:46:38.792Z,12.14
2023-05-06T18:49:06.638Z,12.12
2023-05-06T18:51:33.563Z,12.10
2023-05-06T18:54:00.501Z,12.07
2023-05-06T18:56:27.318Z,12.05
2023-05-06T18:58:54.187Z,12.03
2023-05-06T19:01:21.435Z,12.01
2023-05-06T19:03:48.412Z,11.99
2023-05-06T19:06:15.321Z,11.97
2023-05-06T19:08:42.327Z,11.95
2023-05-06T19:11:16.158Z,11.92
2023-05-06T19:13:47.692Z,11.89
2023-05-06T19:16:14.640Z,11.87
2023-05-06T19:18:41.862Z,11.84
2023-05-06T19:21:12.731Z,11.81
2023-05-06T19:23:39.971Z,11.79
2023-05-06T19:26:07.192Z,11.76
2023-05-06T19:28:34.506Z,11.75
2023-05-06T19:31:01.729Z,11.72
2023-05-06T19:33:28.759Z,11.68
2023-05-06T19:35:55.532Z,11.65
2023-05-06T19:38:29.559Z,11.63
2023-05-06T19:40:58.021Z,11.62
2023-05-06T19:43:28.463Z,11.61
2023-05-06T19:45:58.190Z,11.58
2023-05-06T19:48:25.878Z,11.56
2023-05-06T19:50:59.259Z,11.52
2023-05-06T19:53:26.174Z,11.49
2023-05-06T19:55:54.031Z,11.47
2023-05-06T19:58:20.871Z,11.45
2023-05-06T20:00:47.733Z,11.43
2023-05-06T20:03:14.660Z,11.41
2023-05-06T20:05:44.936Z,11.38
2023-05-06T20:08:11.885Z,11.34
2023-05-06T20:10:38.944Z,11.30
2023-05-06T20:13:07.104Z,11.27
2023-05-06T20:15:35.492Z,11.22
2023-05-06T20:18:03.747Z,11.19
2023-05-06T20:20:36.117Z,11.16
2023-05-06T20:23:03.120Z,11.12
2023-05-06T20:25:30.170Z,11.08
2023-05-06T20:27:58.260Z,11.05
2023-05-06T20:30:25.869Z,11.04
2023-05-06T20:32:53.017Z,11.03
2023-05-06T20:35:19.803Z,11.01
2023-05-06T20:37:46.939Z,10.98
2023-05-06T20:40:14.276Z,10.96
2023-05-06T20:42:41.165Z,10.94
2023-05-06T20:45:08.830Z,10.91
2023-05-06T20:47:36.656Z,10.86
2023-05-06T20:50:03.598Z,10.82
2023-05-06T20:52:30.351Z,10.79
2023-05-06T20:54:58.150Z,10.76
2023-05-06T20:57:25.528Z,10.72
2023-05-06T20:59:52.894Z,10.68
2023-05-06T21:02:20.415Z,10.65
2023-05-06T21:04:47.310Z,10.63
2023-05-06T21:07:14.180Z,10.62
2023-05-06T21:09:40.964Z,10.62
2023-05-06T21:12:07.666Z,10.60
2023-05-06T21:14:34.385Z,10.55
2023-05-06T21:17:01.277Z,10.51
2023-05-06T21:19:28.112Z,10.48
2023-05-06T21:21:54.892Z,10.46
2023-05-06T21:24:21.798Z,10.45
2023-05-06T21:26:48.646Z,10.44
2023-05-06T21:29:15.412Z,10.43
2023-05-06T21:31:42.105Z,10.40
2023-05-06T21:34:10.805Z,10.38
2023-05-06T21:36:37.595Z,10.37
2023-05-06T21:39:10.184Z,10.35
2023-05-06T21:41:36.969Z,10.33
2023-05-06T21:44:04.251Z,10.32
2023-05-06T21:46:31.686Z,10.29
2023-05-06T21:48:58.838Z,10.26
2023-05-06T21:51:30.346Z,10.25
2023-05-06T21:53:57.110Z,10.23
2023-05-06T21:56:24.315Z,10.21
2023-05-06T21:58:52.001Z,10.16
2023-05-06T22:01:19.096Z,10.13
2023-05-06T22:03:46.354Z,10.10
2023-05-06T22:06:13.195Z,10.07
2023-05-06T22:08:40.902Z,10.03
2023-05-06T22:11:07.737Z,9.96
2023-05-06T22:13:34.665Z,9.89
2023-05-06T22:16:01.414Z,9.80
2023-05-06T22:18:30.055Z,9.70
2023-05-06T22:20:57.809Z,9.58
2023-05-06T22:23:25.320Z,9.32
2023-05-06T22:25:52.188Z,9.11
2023-05-06T22:28:19.537Z,8.85
2023-05-06T22:30:46.467Z,8.20
2023-05-06T22:33:13.224Z,7.64
2023-05-06T22:35:40.021Z,7.36
2023-05-06T22:38:06.725Z,7.21
2023-05-06T22:40:33.487Z,7.08
2023-05-06T22:43:00.309Z,7.09
2023-05-06T22:45:27.216Z,6.96
2023-05-06T22:47:54.149Z,6.62
2023-05-06T22:50:20.855Z,6.31
2023-05-06T22:52:47.629Z,6.12
2023-05-06T22:55:15.106Z,6.02
2023-05-06T22:57:41.935Z,5.94
2023-05-06T23:00:12.448Z,5.91
2023-05-06T23:02:39.873Z,5.91
2023-05-06T23:05:06.814Z,5.96
2023-05-06T23:07:33.516Z,6.00
2023-05-06T23:10:00.216Z,6.02
2023-05-06T23:12:28.015Z,6.07
2023-05-06T23:14:54.728Z,6.14
2023-05-06T23:17:21.450Z,6.18
2023-05-06T23:19:48.183Z,6.24
2023-05-06T23:22:14.958Z,6.29
2023-05-06T23:24:42.281Z,6.36
2023-05-06T23:27:09.011Z,6.44
2023-05-06T23:29:35.781Z,6.51
2023-05-06T23:32:02.890Z,6.57
2023-05-06T23:34:29.794Z,6.61
2023-05-06T23:36:56.678Z,6.65
2023-05-06T23:39:23.543Z,6.69
2023-05-06T23:41:50.384Z,6.74
2023-05-06T23:44:17.132Z,6.78
2023-05-06T23:46:43.929Z,6.81
2023-05-06T23:49:10.811Z,6.83
2023-05-06T23:51:37.468Z,6.81
2023-05-06T23:54:04.298Z,6.80
2023-05-06T23:56:31.095Z,6.79
2023-05-06T23:58:58.035Z,6.77
